METAR Data
IDs: Format: Raw Decoded Include TAF

Data at: 1020 UTC 26 Sep 2018

KFZY 260954Z AUTO 18009KT 10SM FEW100 21/18 A2985 RMK AO2 RAB03E18 SLP106 P0000 T02110178
KFZY 260854Z AUTO 18008KT 10SM FEW075 BKN110 21/18 A2986 RMK AO2 SLP109 T02110178 56023
KFZY 260754Z AUTO 17007KT 10SM OVC065 21/18 A2987 RMK AO2 SLP114 T02060178
KFZY 260654Z AUTO VRB04KT 10SM OVC050 20/17 A2990 RMK AO2 SLP122 T02000172
KFZY 260554Z AUTO VRB04KT 10SM SCT055 OVC085 19/17 A2993 RMK AO2 LTG DSNT E AND SE RAB00E27 SLP134 P0002 60002 T01940172 10194 20167 57022
KFZY 260546Z AUTO VRB03KT 10SM BKN055 OVC080 19/17 A2993 RMK AO2 LTG DSNT NE-SE RAB00E27 P0002 T01940172
KFZY 260524Z AUTO VRB05KT 10SM VCTS -RA SCT029 BKN049 OVC090 19/17 A2994 RMK AO2 LTG DSNT NE AND NW RAB00 P0002 T01890167
KFZY 260506Z AUTO VRB05KT 8SM VCTS -RA BKN027 OVC035 19/16 A2995 RMK AO2 LTG DSNT S-NW RAB00 P0000 T01890161
KFZY 260454Z AUTO VRB04KT 10SM OVC032 19/16 A2995 RMK AO2 LTG DSNT S-NW SLP142 T01890161 401890111
KFZY 260416Z AUTO 13005KT 10SM BKN027 OVC070 19/16 A2997 RMK AO2 T01890161
KFZY 260354Z AUTO 00000KT 10SM SCT027 BKN070 BKN095 18/16 A2997 RMK AO2 SLP148 T01830161
KFZY 260254Z AUTO 13003KT 10SM OVC025 18/16 A3000 RMK AO2 SLP156 T01780156 58009
KFZY 260154Z AUTO VRB03KT 10SM BKN025 17/15 A3001 RMK AO2 SLP162 T01720150
KFZY 260122Z AUTO 00000KT 10SM BKN026 OVC055 17/16 A3001 RMK AO2 T01720156
KFZY 260054Z AUTO VRB03KT 10SM BKN060 BKN080 17/15 A3002 RMK AO2 SLP166 T01720150
KFZY 252354Z AUTO VRB03KT 10SM FEW060 SCT070 SCT110 17/14 A3002 RMK AO2 SLP166 60000 T01670144 10183 20156 56013
KFZY 252254Z AUTO VRB04KT 10SM CLR 17/15 A3003 RMK AO2 RAB16E36 SLP171 P0000 T01720150
KFZY 252154Z AUTO VRB05KT 10SM OVC085 18/14 A3003 RMK AO2 SLP170 T01780144
KFZY 252054Z AUTO VRB05KT 10SM SCT027 SCT055 SCT090 18/14 A3006 RMK AO2 SLP179 60000 T01780144 56022
KFZY 251954Z AUTO 14007KT 100V170 10SM OVC050 18/14 A3007 RMK AO2 SLP184 T01780139
KFZY 251854Z AUTO VRB06KT 10SM FEW005 BKN047 OVC060 17/14 A3010 RMK AO2 RAB1759E11 SLP193 P0000 T01670139
KFZY 251836Z AUTO 13006KT 10SM FEW005 SCT025 OVC045 16/13 A3010 RMK AO2 RAB1759E11 P0000 T01610133
KFZY 251827Z AUTO 13007KT 10SM FEW005 BKN025 OVC045 16/13 A3011 RMK AO2 RAB1759E11 P0000 T01560133
KFZY 251804Z AUTO VRB04KT 6SM -RA BR FEW006 SCT026 OVC045 16/13 A3012 RMK AO2 RAB1759 P0000 T01560133
KFZY 251754Z AUTO VRB05KT 8SM SCT006 BKN026 OVC043 16/13 A3013 RMK AO2 RAE41 SLP201 P0001 60018 T01560133 10156 20111 58025
KFZY 251724Z AUTO VRB06KT 4SM -RA BR SCT007 BKN027 OVC033 15/13 A3014 RMK AO2 P0001 T01500128
KFZY 251654Z AUTO 13006KT 5SM -RA BR BKN006 BKN030 OVC045 14/13 A3015 RMK AO2 SLP211 P0000 T01440128
KFZY 251642Z AUTO VRB06KT 3SM -RA BR BKN006 BKN027 OVC044 14/12 A3016 RMK AO2 P0000 T01440122
KFZY 251632Z AUTO 14007KT 4SM -RA BR SCT006 BKN040 OVC047 14/12 A3016 RMK AO2 P0000 T01440122
KFZY 251554Z AUTO VRB06KT 5SM -RA BR BKN006 OVC043 14/12 A3018 RMK AO2 SLP220 P0001 T01390122
KFZY 251512Z AUTO 14007G15KT 090V170 4SM -RA BR BKN006 OVC050 13/12 A3019 RMK AO2 P0000 T01330117
KFZY 251454Z AUTO 13007KT 9SM -RA BKN005 OVC055 13/11 A3020 RMK AO2 SLP227 P0012 60016 T01330111 56020
KFZY 251424Z AUTO 13007KT 3SM -RA BR BKN005 BKN028 OVC055 13/11 A3021 RMK AO2 P0011 T01280106
KFZY 251418Z AUTO 13007KT 100V170 1 1/4SM RA BR BKN005 BKN024 OVC055 13/11 A3021 RMK AO2 P0011 T01280106
KFZY 251413Z AUTO 13007KT 080V150 3/4SM +RA BR BKN005 OVC019 13/11 A3021 RMK AO2 P0010 T01280106
KFZY 251406Z AUTO 13007KT 070V150 1 3/4SM +RA BR BKN005 OVC011 13/11 A3022 RMK AO2 P0004 T01280106
KFZY 251354Z AUTO 13007G15KT 110V170 10SM -RA OVC005 12/11 A3023 RMK AO2 SLP236 P0003 T01220106
KFZY 251254Z AUTO VRB06KT 10SM -RA OVC005 12/10 A3023 RMK AO2 RAE23B33 SLP238 P0001 T01170100
KFZY 251224Z AUTO VRB06G16KT 10SM OVC004 12/09 A3025 RMK AO2 RAE23 P0001 T01170094
KFZY 251201Z AUTO VRB06KT 7SM -RA OVC005 11/09 A3026 RMK AO2 P0001 T01110094
KFZY 251154Z AUTO 13008KT 2 1/2SM -RA BR BKN005 OVC028 11/09 A3026 RMK AO2 SLP248 P0013 60077 70082 T01110094 10128 20111 58009
KFZY 251143Z AUTO 13007KT 1 3/4SM +RA BR BKN005 OVC026 11/09 A3026 RMK AO2 P0011 T01110094
KFZY 251135Z AUTO VRB06KT 2SM RA BR BKN005 OVC029 11/09 A3026 RMK AO2 P0007 T01110094
KFZY 251116Z AUTO 13006KT 4SM -RA BR OVC005 11/09 A3027 RMK AO2 P0002 T01110094
KFZY 251054Z AUTO VRB06KT 6SM -RA BR OVC006 11/09 A3028 RMK AO2 SLP254 P0012 T01110094
KFZY 251019Z AUTO VRB05KT 5SM -RA BR BKN005 OVC033 12/09 A3028 RMK AO2 P0008 T01170094
KFZY 251012Z AUTO 12006KT 4SM RA BR BKN007 OVC035 12/10 A3028 RMK AO2 P0007 T01170100
KFZY 251002Z AUTO VRB05KT 2SM +RA BR BKN007 BKN031 OVC055 12/10 A3028 RMK AO2 P0005 T01170100
KFZY 250954Z AUTO 14007G15KT 3SM +RA BR BKN007 BKN037 OVC060 12/10 A3028 RMK AO2 SLP255 P0025 T01220100
KFZY 250932Z AUTO 13008KT 4SM RA BR SCT007 BKN044 OVC075 12/10 A3030 RMK AO2 P0016 T01220100
KFZY 250923Z AUTO 14007KT 2 1/2SM +RA BR FEW007 BKN048 OVC075 12/10 A3029 RMK AO2 P0013 T01220100
KFZY 250914Z AUTO VRB06KT 2 1/2SM +RA BR BKN050 OVC070 12/10 A3029 RMK AO2 P0008 T01220100
KFZY 250854Z AUTO 13009G18KT 4SM RA BR SCT049 BKN070 OVC100 12/10 A3029 RMK AO2 SLP255 P0005 60027 T01220100 58020
KFZY 250754Z AUTO VRB06KT 7SM -RA OVC110 12/10 A3031 RMK AO2 SLP262 P0008 T01220100
KFZY 250654Z AUTO VRB06KT 4SM -RA BR FEW022 OVC065 12/10 A3033 RMK AO2 SLP270 P0014 T01220100
KFZY 250554Z AUTO 14007KT 100V170 7SM RA FEW050 BKN070 OVC090 13/10 A3035 RMK AO2 RAB08 SLP275 P0005 60005 T01280100 10167 20128 55005
KFZY 250507Z AUTO 13007G16KT 090V170 9SM SCT029 BKN075 OVC090 14/09 A3034 RMK AO2 T01440094
KFZY 250454Z AUTO 14009G17KT 10SM BKN029 OVC095 14/09 A3034 RMK AO2 SLP273 T01440094 402110067
KFZY 250445Z AUTO 14009G16KT 100V170 10SM BKN029 BKN110 14/09 A3034 RMK AO2 T01440094
KFZY 250354Z AUTO 13009G15KT 10SM BKN095 14/09 A3035 RMK AO2 SLP277 T01390094
KFZY 250254Z AUTO VRB05KT 10SM CLR 14/09 A3036 RMK AO2 SLP282 T01390094 58001
KFZY 250154Z AUTO 12007KT 080V150 10SM CLR 15/09 A3037 RMK AO2 SLP285 T01500094
KFZY 250054Z AUTO 13007KT 10SM CLR 16/08 A3037 RMK AO2 SLP286 T01560078
KFZY 242354Z AUTO VRB06KT 10SM CLR 16/08 A3037 RMK AO2 SLP283 T01610078 10211 20161 55000
KFZY 242254Z AUTO VRB03KT 10SM CLR 17/10 A3036 RMK AO2 SLP281 T01670100